ADDS METAR Data INFO
IDs: Format: Raw Decoded Include TAF

Data at: 0927 UTC 17 Oct 2017

KPMD 170853Z AUTO 22004KT 10SM CLR 12/M11 A3017 RMK AO2 SLP197 T01221106 58004 $
KPMD 170753Z AUTO 20007KT 10SM CLR 13/M09 A3017 RMK AO2 SLP198 T01281089 402940072 $
KPMD 170653Z AUTO 21006KT 10SM CLR 13/M09 A3018 RMK AO2 SLP204 T01331089 $
KPMD 170553Z AUTO 19006KT 10SM CLR 14/M08 A3018 RMK AO2 SLP204 T01391078 10294 20139 51008 $
KPMD 170453Z AUTO 00000KT 10SM CLR 17/M10 A3018 RMK AO2 SLP203 T01671100 $
KPMD 170353Z AUTO 19010KT 10SM CLR 17/M08 A3017 RMK AO2 SLP203 T01721078 $
KPMD 170253Z AUTO 23005KT 10SM CLR 19/M11 A3016 RMK AO2 SLP199 T01891106 53002 $
KPMD 170153Z AUTO 35004KT 10SM CLR 24/M12 A3015 RMK AO2 SLP195 T02441117 $
KPMD 170053Z AUTO 36003KT 10SM CLR 28/M13 A3014 RMK AO2 SLP189 T02781133 $
KPMD 162353Z AUTO 03005KT 10SM CLR 29/M14 A3015 RMK AO2 SLP190 T02941139 10294 20211 56016 $
KPMD 162253Z AUTO 00000KT 10SM 29/M14 A3016 RMK AO2 SLP196 T02941139 $
KPMD 162153Z AUTO 00000KT 10SM CLR 28/M14 A3018 RMK AO2 SLP202 T02831139
KPMD 162053Z AUTO VRB03KT 10SM CLR 27/M14 A3020 RMK AO2 SLP209 T02671144 58025
KPMD 161953Z AUTO 02005KT 10SM CLR 26/M15 A3023 RMK AO2 SLP222 T02561150
KPMD 161853Z AUTO 35003KT 10SM CLR 23/M15 A3026 RMK AO2 SLP230 T02331150
KPMD 161753Z AUTO 33005KT 10SM CLR 22/M15 A3028 RMK AO2 SLP237 T02171150 10217 20072 50004
KPMD 161653Z AUTO 36003KT 10SM CLR 18/M12 A3029 RMK AO2 SLP244 T01781117
KPMD 161553Z AUTO 34003KT 10SM CLR 15/M08 A3029 RMK AO2 SLP244 T01501083
KPMD 161453Z AUTO 18005KT 10SM CLR 12/M08 A3027 RMK AO2 SLP237 T01171083 52008
KPMD 161353Z AUTO 18004KT 10SM CLR 08/M08 A3026 RMK AO2 SLP233 T00781078 $
KPMD 161253Z AUTO 21006KT 10SM CLR 08/M09 A3025 RMK AO2 SLP228 T00831094 $
KPMD 161153Z AUTO 21003KT 10SM CLR 09/M11 A3024 RMK AO2 SLP224 T00891106 10150 20083 55005 $
KPMD 161053Z AUTO 10SM CLR 09/M12 A3024 RMK AO2 SLP222 T00891122 $
KPMD 160953Z AUTO 00000KT 10SM CLR 08/M12 A3026 RMK AO2 SLP229 T00831122 $
KPMD 160853Z AUTO 21004KT 10SM CLR 09/M12 A3026 RMK AO2 SLP229 T00941117 53002 $
KPMD 160753Z AUTO 21007KT 10SM CLR 10/M10 A3025 RMK AO2 SLP227 T01001100 402780050 $
KPMD 160653Z AUTO 27007KT 240V310 10SM CLR 12/M13 A3025 RMK AO2 SLP229 T01221133 $
KPMD 160553Z AUTO 29003KT 10SM CLR 15/M13 A3025 RMK AO2 SLP227 T01501133 10272 20139 51009 $
KPMD 160453Z AUTO 29003KT 10SM CLR 14/M12 A3024 RMK AO2 SLP228 T01391122 $
KPMD 160353Z AUTO 20007KT 10SM CLR 15/M12 A3023 RMK AO2 SLP226 T01501122 $
KPMD 160253Z AUTO 18004KT 10SM CLR 19/M14 A3022 RMK AO2 SLP224 T01941139 53007 $
KPMD 160153Z AUTO 06004KT 10SM CLR 22/M12 A3020 RMK AO2 SLP217 T02171122 $
KPMD 160053Z AUTO 06006KT 10SM CLR 26/M16 A3019 RMK AO2 SLP212 T02561156 $
KPMD 152353Z AUTO 08006KT 10SM CLR 27/M17 A3020 RMK AO2 SLP209 T02671167 10278 20200 56013 $
KPMD 152253Z AUTO 05007KT 10SM CLR 27/M16 A3021 RMK AO2 SLP213 T02721161 $
KPMD 152153Z AUTO 06008KT 10SM CLR 27/M16 A3022 RMK AO2 SLP217 T02721161 $